Chacarita, Costa Rica
Current Conditions -  °F | °C
As of 4:00 PM on Thursday 27 Nov 2014 (Local Time) from MROC Reporting Station
Rain Showers Rain Showers  
Wind Chill: 73°   Ceiling: 3500
Heat Index: 73°   Visibility: 6mi
Dew Point: 64°   Wind: 6mph
Humidity: 73%   Direction: 100°E
Pressure: 29.93"   Gusts: NA
Location:  9.99°N, 84.78°W
Report Text: MROC 272200Z 10005KT 9999 VCSH FEW020TCU BKN035 23/18 A2993 NOSIG
Loading
Personal Weather Stations






























Interactive Weather Map New forecast layout! Learn more

10-Day Weather Forecast

Advertisements
Track Severe Weather on mobile